Time;durP1;ratioP1;P1;durP2;ratioP2;P2;SDS_P1;SDS_P2;PMS_P1;PMS_P2;Temp;Humidity;BMP_temperature;BMP_pressure;BME280_temperature;BME280_humidity;BME280_pressure;Samples;Min_cycle;Max_cycle;Signal;HPM_P1;HPM_P2
2022/10/19 00:00:20;;;;;;;4.03;2.03;;;12.40;99.90;;;;;;4947209;29;20667;-68
2022/10/19 00:02:45;;;;;;;6.23;2.17;;;12.40;99.90;;;;;;4935693;29;20976;-68
2022/10/19 00:05:10;;;;;;;7.10;2.67;;;12.40;99.90;;;;;;4939022;28;20218;-68
2022/10/19 00:07:36;;;;;;;4.80;2.30;;;12.40;99.90;;;;;;4941291;29;20191;-68
2022/10/19 00:10:03;;;;;;;5.40;2.37;;;12.40;99.90;;;;;;4937139;29;20205;-68
2022/10/19 00:12:29;;;;;;;6.53;2.10;;;12.40;99.90;;;;;;4936270;29;20215;-67
2022/10/19 00:14:54;;;;;;;3.73;2.00;;;12.40;99.90;;;;;;4934384;29;20315;-67
2022/10/19 00:17:19;;;;;;;3.77;2.17;;;12.40;99.90;;;;;;4946452;29;20213;-67
2022/10/19 00:19:45;;;;;;;4.83;2.30;;;12.40;99.90;;;;;;4925142;29;20278;-67
2022/10/19 00:22:10;;;;;;;6.40;2.80;;;12.40;99.90;;;;;;4937337;29;20826;-68
2022/10/19 00:24:36;;;;;;;5.13;2.17;;;12.40;99.90;;;;;;4944494;29;20224;-67
2022/10/19 00:27:01;;;;;;;6.30;2.43;;;12.40;99.90;;;;;;4944843;29;20665;-67
2022/10/19 00:29:27;;;;;;;7.30;2.00;;;12.40;99.90;;;;;;4937791;29;20622;-68
2022/10/19 00:31:52;;;;;;;7.37;2.40;;;12.40;99.90;;;;;;4946296;29;20191;-67
2022/10/19 00:34:18;;;;;;;3.83;2.83;;;12.40;99.90;;;;;;4941580;29;20732;-67
2022/10/19 00:36:43;;;;;;;4.20;2.10;;;12.40;99.90;;;;;;4946307;29;20194;-68
2022/10/19 00:39:13;;;;;;;5.37;2.43;;;12.40;99.90;;;;;;4939663;29;20233;-69
2022/10/19 00:41:39;;;;;;;7.27;2.50;;;12.40;99.90;;;;;;4936385;29;20225;-70
2022/10/19 00:44:10;;;;;;;5.53;2.00;;;12.40;99.90;;;;;;4940887;29;20593;-68
2022/10/19 00:46:38;;;;;;;7.40;2.60;;;12.30;99.90;;;;;;4936701;29;20605;-67
2022/10/19 00:49:12;;;;;;;4.97;2.50;;;12.30;99.90;;;;;;4926686;29;20213;-68
2022/10/19 00:51:42;;;;;;;5.33;2.33;;;12.30;99.90;;;;;;4945713;29;20205;-67
2022/10/19 00:54:09;;;;;;;5.80;2.63;;;12.30;99.90;;;;;;4940956;28;20210;-67
2022/10/19 00:56:38;;;;;;;4.37;2.17;;;12.20;99.90;;;;;;4936129;29;20197;-67
2022/10/19 00:59:05;;;;;;;6.83;2.30;;;12.20;99.90;;;;;;4938416;29;20197;-67
2022/10/19 01:01:32;;;;;;;6.97;3.00;;;12.20;99.90;;;;;;4945949;29;20199;-67
2022/10/19 01:03:58;;;;;;;7.53;2.37;;;12.20;99.90;;;;;;4943990;29;20276;-68
2022/10/19 01:06:25;;;;;;;8.33;1.97;;;12.20;99.90;;;;;;4945786;28;20786;-68
2022/10/19 01:08:50;;;;;;;5.97;1.90;;;12.20;99.90;;;;;;4939757;29;20215;-67
2022/10/19 01:11:40;;;;;;;5.73;1.77;;;12.20;99.90;;;;;;4943864;29;20198;-68
2022/10/19 01:14:21;;;;;;;3.60;1.40;;;12.20;99.90;;;;;;4937122;29;20559;-67
2022/10/19 01:17:01;;;;;;;3.27;1.20;;;12.30;99.90;;;;;;4935694;28;20749;-68
2022/10/19 01:20:04;;;;;;;4.40;1.57;;;12.30;99.90;;;;;;4919785;29;20256;-68
2022/10/19 01:22:51;;;;;;;5.03;2.20;;;12.30;99.90;;;;;;4936868;29;20214;-68
2022/10/19 01:25:40;;;;;;;1.97;1.47;;;12.30;99.90;;;;;;4932808;29;20239;-68
2022/10/19 01:28:31;;;;;;;6.43;2.00;;;12.30;99.90;;;;;;4938680;29;20197;-66
2022/10/19 01:31:03;;;;;;;5.20;2.13;;;12.30;99.90;;;;;;4943735;29;20312;-67
2022/10/19 01:33:46;;;;;;;3.57;1.97;;;12.30;99.90;;;;;;4943433;29;20209;-66
2022/10/19 01:36:36;;;;;;;3.20;1.67;;;12.30;99.90;;;;;;4945327;29;20180;-68
2022/10/19 01:39:42;;;;;;;8.47;1.90;;;12.30;99.90;;;;;;4933488;29;20379;-69
2022/10/19 01:42:25;;;;;;;9.63;2.37;;;12.20;99.90;;;;;;4934175;29;20676;-68
2022/10/19 01:45:28;;;;;;;9.93;2.40;;;12.20;99.90;;;;;;4940000;29;20224;-68
2022/10/19 01:48:00;;;;;;;4.93;2.33;;;12.20;99.90;;;;;;4879015;29;20293;-67
2022/10/19 01:50:38;;;;;;;6.70;1.93;;;12.20;99.90;;;;;;4939452;29;20203;-69
2022/10/19 01:53:07;;;;;;;7.20;1.80;;;12.20;99.90;;;;;;4935855;28;20263;-68
2022/10/19 01:55:33;;;;;;;6.97;2.60;;;12.20;99.90;;;;;;4942926;29;20258;-67
2022/10/19 01:58:04;;;;;;;6.23;1.90;;;12.10;99.90;;;;;;4944667;29;20195;-67
2022/10/19 02:00:31;;;;;;;4.43;1.67;;;12.10;99.90;;;;;;4938980;29;20212;-66
2022/10/19 02:02:59;;;;;;;5.03;1.90;;;12.10;99.90;;;;;;4939265;29;20198;-68
2022/10/19 02:05:30;;;;;;;6.07;2.13;;;12.10;99.90;;;;;;4934291;29;20751;-68
2022/10/19 02:08:01;;;;;;;5.70;2.13;;;12.10;99.90;;;;;;4943267;29;20658;-67
2022/10/19 02:10:27;;;;;;;3.50;2.60;;;12.10;99.90;;;;;;4933060;29;20239;-67
2022/10/19 02:12:54;;;;;;;7.63;1.73;;;12.10;99.90;;;;;;4941856;29;20284;-66
2022/10/19 02:15:22;;;;;;;5.47;2.20;;;12.00;99.90;;;;;;4940312;29;20212;-68
2022/10/19 02:17:52;;;;;;;6.03;1.80;;;12.00;99.90;;;;;;4937526;29;20572;-67
2022/10/19 02:20:18;;;;;;;3.80;1.87;;;12.00;99.90;;;;;;4934182;29;20287;-67
2022/10/19 02:22:44;;;;;;;10.10;2.43;;;12.00;99.90;;;;;;4936055;29;20230;-67
2022/10/19 02:25:11;;;;;;;6.27;1.90;;;12.00;99.90;;;;;;4936694;29;20225;-68
2022/10/19 02:27:40;;;;;;;9.37;2.10;;;12.00;99.90;;;;;;4933586;29;20233;-67
2022/10/19 02:30:08;;;;;;;8.30;2.07;;;12.00;99.90;;;;;;4935460;29;20257;-68
2022/10/19 02:32:33;;;;;;;4.37;2.57;;;12.00;99.90;;;;;;4942773;29;20680;-67
2022/10/19 02:34:59;;;;;;;4.73;1.80;;;12.00;99.90;;;;;;4937639;29;20296;-69
2022/10/19 02:37:24;;;;;;;4.57;1.90;;;12.00;99.90;;;;;;4941047;29;20328;-69
2022/10/19 02:39:50;;;;;;;4.47;2.37;;;12.00;99.90;;;;;;4939939;29;20207;-67
2022/10/19 02:42:31;;;;;;;6.90;2.50;;;12.00;99.90;;;;;;4930170;29;20190;-68
2022/10/19 02:45:05;;;;;;;6.33;2.27;;;12.00;99.90;;;;;;4930125;29;20336;-69
2022/10/19 02:47:36;;;;;;;7.70;2.00;;;12.00;99.90;;;;;;4942528;29;20229;-68
2022/10/19 02:50:06;;;;;;;3.50;1.97;;;12.00;99.90;;;;;;4944173;29;20227;-69
2022/10/19 02:52:32;;;;;;;6.23;2.40;;;12.00;99.90;;;;;;4939178;28;20205;-68
2022/10/19 02:54:57;;;;;;;4.07;1.70;;;11.90;99.90;;;;;;4946601;29;20214;-68
2022/10/19 02:57:24;;;;;;;5.53;2.03;;;11.90;99.90;;;;;;4938485;29;20184;-69
2022/10/19 02:59:50;;;;;;;4.10;1.70;;;11.90;99.90;;;;;;4931144;29;20242;-68
2022/10/19 03:02:18;;;;;;;3.97;1.60;;;11.90;99.90;;;;;;4938022;29;20204;-69
2022/10/19 03:04:44;;;;;;;6.13;1.93;;;11.90;99.90;;;;;;4932160;29;20222;-67
2022/10/19 03:07:11;;;;;;;1.80;1.53;;;12.00;99.90;;;;;;4948247;29;20226;-68
2022/10/19 03:09:37;;;;;;;6.00;1.87;;;11.90;99.90;;;;;;4946255;29;20208;-67
2022/10/19 03:12:02;;;;;;;2.37;1.63;;;11.90;99.90;;;;;;4948020;29;20193;-67
2022/10/19 03:14:28;;;;;;;3.43;1.93;;;12.00;99.90;;;;;;4945757;29;20545;-67
2022/10/19 03:16:53;;;;;;;4.73;1.63;;;12.00;99.90;;;;;;4947780;29;20193;-69
2022/10/19 03:19:19;;;;;;;2.90;1.77;;;11.90;99.90;;;;;;4944179;29;20274;-70
2022/10/19 03:21:44;;;;;;;3.30;1.87;;;11.90;99.90;;;;;;4944223;29;20556;-68
2022/10/19 03:24:10;;;;;;;5.30;2.27;;;11.90;99.90;;;;;;4940484;29;20259;-66
2022/10/19 03:26:36;;;;;;;6.27;1.93;;;12.00;99.90;;;;;;4947174;29;20284;-67
2022/10/19 03:29:01;;;;;;;5.47;1.57;;;11.90;99.90;;;;;;4932830;29;20295;-67
2022/10/19 03:31:27;;;;;;;2.97;1.50;;;11.90;99.90;;;;;;4944905;29;20207;-67
2022/10/19 03:33:52;;;;;;;1.87;1.37;;;12.00;99.90;;;;;;4933957;29;20568;-68
2022/10/19 03:36:26;;;;;;;3.53;1.53;;;11.90;99.90;;;;;;4946551;29;20197;-68
2022/10/19 03:38:54;;;;;;;3.60;1.67;;;11.90;99.90;;;;;;4938009;29;20260;-67
2022/10/19 03:41:21;;;;;;;4.77;1.50;;;11.90;99.90;;;;;;4942645;28;20200;-68
2022/10/19 03:43:46;;;;;;;8.20;2.17;;;11.90;99.90;;;;;;4937146;29;20732;-69
2022/10/19 03:46:12;;;;;;;3.77;1.53;;;11.90;99.90;;;;;;4946341;29;20239;-69
2022/10/19 03:48:38;;;;;;;3.73;1.37;;;11.90;99.90;;;;;;4935968;29;20236;-69
2022/10/19 03:51:07;;;;;;;7.07;1.80;;;11.90;99.90;;;;;;4944402;29;20195;-70
2022/10/19 03:53:33;;;;;;;4.87;1.67;;;11.90;99.90;;;;;;4937510;29;20225;-70
2022/10/19 03:56:10;;;;;;;3.40;1.50;;;11.90;99.90;;;;;;4935982;29;20265;-70
2022/10/19 03:58:37;;;;;;;3.60;1.67;;;11.90;99.90;;;;;;4927543;29;20271;-67
2022/10/19 04:01:07;;;;;;;3.23;2.13;;;11.90;99.90;;;;;;4946588;29;20318;-67
2022/10/19 04:03:33;;;;;;;2.97;1.50;;;11.90;99.90;;;;;;4935783;29;20244;-66
2022/10/19 04:06:07;;;;;;;4.87;1.77;;;11.90;99.90;;;;;;4934891;29;20661;-66
2022/10/19 04:08:33;;;;;;;2.00;1.33;;;11.80;99.90;;;;;;4941703;29;20254;-66
2022/10/19 04:11:05;;;;;;;3.77;1.47;;;11.80;99.90;;;;;;4935344;29;20206;-67
2022/10/19 04:13:31;;;;;;;2.70;0.87;;;11.90;99.90;;;;;;4943744;29;20247;-66
2022/10/19 04:15:57;;;;;;;4.00;1.23;;;11.90;99.90;;;;;;4942246;29;20633;-66
2022/10/19 04:18:22;;;;;;;5.77;1.20;;;11.80;99.90;;;;;;4938861;29;20212;-67
2022/10/19 04:20:48;;;;;;;1.50;0.90;;;11.90;99.90;;;;;;4939285;29;20204;-66
2022/10/19 04:23:13;;;;;;;3.80;1.00;;;11.90;99.90;;;;;;4936851;29;20213;-67
2022/10/19 04:25:39;;;;;;;1.73;1.13;;;11.90;99.90;;;;;;4938073;29;20694;-67
2022/10/19 04:28:04;;;;;;;2.63;1.17;;;11.90;99.90;;;;;;4937430;29;20195;-67
2022/10/19 04:30:30;;;;;;;3.40;1.20;;;11.80;99.90;;;;;;4941782;29;20240;-66
2022/10/19 04:32:55;;;;;;;3.37;1.20;;;11.80;99.90;;;;;;4937272;29;20205;-67
2022/10/19 04:35:21;;;;;;;5.57;1.03;;;11.90;99.90;;;;;;4940490;29;20225;-67
2022/10/19 04:37:46;;;;;;;3.63;0.97;;;11.80;99.90;;;;;;4937343;29;20235;-68
2022/10/19 04:40:12;;;;;;;1.63;0.90;;;11.80;99.90;;;;;;4939033;29;20220;-67
2022/10/19 04:42:37;;;;;;;2.30;0.77;;;11.80;99.90;;;;;;4945853;29;20211;-66
2022/10/19 04:45:03;;;;;;;2.83;1.17;;;11.80;99.90;;;;;;4935607;29;20230;-69
2022/10/19 04:47:29;;;;;;;2.47;2.23;;;11.80;99.90;;;;;;4936449;29;20219;-68
2022/10/19 04:49:54;;;;;;;3.40;0.83;;;11.90;99.90;;;;;;4941378;29;20215;-69
2022/10/19 04:52:20;;;;;;;4.03;1.20;;;11.90;99.90;;;;;;4938353;28;20330;-66
2022/10/19 04:54:46;;;;;;;3.70;1.13;;;11.90;99.90;;;;;;4940424;29;20690;-66
2022/10/19 04:57:11;;;;;;;1.13;0.83;;;11.90;99.90;;;;;;4943386;29;20201;-66
2022/10/19 04:59:37;;;;;;;3.93;1.10;;;11.90;99.90;;;;;;4933216;29;20214;-69
2022/10/19 05:02:03;;;;;;;2.80;0.90;;;11.90;99.90;;;;;;4936380;29;20956;-67
2022/10/19 05:04:29;;;;;;;3.50;1.33;;;11.90;99.90;;;;;;4930759;29;20225;-67
2022/10/19 05:06:54;;;;;;;3.20;1.07;;;11.90;99.90;;;;;;4924285;29;20202;-68
2022/10/19 05:09:20;;;;;;;2.93;0.90;;;11.90;99.90;;;;;;4939935;29;20293;-68
2022/10/19 05:11:48;;;;;;;1.80;0.90;;;11.80;99.90;;;;;;4945873;29;20319;-67
2022/10/19 05:14:14;;;;;;;0.83;0.50;;;11.80;99.90;;;;;;4929414;29;20209;-67
2022/10/19 05:16:39;;;;;;;2.50;0.90;;;11.80;99.90;;;;;;4935533;29;20205;-68
2022/10/19 05:19:05;;;;;;;7.53;1.43;;;11.80;99.90;;;;;;4941278;29;20321;-67
2022/10/19 05:21:30;;;;;;;2.83;1.40;;;11.80;99.90;;;;;;4937331;29;20277;-70
2022/10/19 05:23:56;;;;;;;1.63;1.27;;;11.80;99.90;;;;;;4943018;29;20311;-67
2022/10/19 05:26:24;;;;;;;2.80;1.50;;;11.80;99.90;;;;;;4943957;29;20244;-69
2022/10/19 05:28:56;;;;;;;2.23;0.83;;;11.80;99.90;;;;;;4936684;29;20200;-69
2022/10/19 05:31:23;;;;;;;1.43;0.90;;;11.80;99.90;;;;;;4929032;29;20664;-70
2022/10/19 05:33:49;;;;;;;2.40;0.90;;;11.80;99.90;;;;;;4936412;29;20202;-70
2022/10/19 05:36:19;;;;;;;6.30;1.33;;;11.80;99.90;;;;;;4935908;29;20208;-68
2022/10/19 05:38:47;;;;;;;2.93;0.90;;;11.80;99.90;;;;;;4936061;29;20212;-69
2022/10/19 05:41:13;;;;;;;6.80;5.33;;;11.80;99.90;;;;;;4929877;29;20745;-70
2022/10/19 05:43:40;;;;;;;4.50;0.97;;;11.70;99.90;;;;;;4929302;29;20203;-68
2022/10/19 05:46:08;;;;;;;4.23;1.23;;;11.70;99.90;;;;;;4925796;29;20312;-68
2022/10/19 05:48:34;;;;;;;3.10;1.20;;;11.70;99.90;;;;;;4935552;29;20204;-69
2022/10/19 05:51:02;;;;;;;5.20;1.07;;;11.60;99.90;;;;;;4936060;29;20206;-71
2022/10/19 05:53:28;;;;;;;3.93;1.23;;;11.60;99.90;;;;;;4926304;28;20294;-68
2022/10/19 05:55:54;;;;;;;4.97;0.87;;;11.70;99.90;;;;;;4926640;29;20206;-69
2022/10/19 05:58:19;;;;;;;1.67;0.90;;;11.60;99.90;;;;;;4928988;29;20269;-71
2022/10/19 06:00:53;;;;;;;5.63;1.47;;;11.70;99.90;;;;;;4929787;29;20691;-80
2022/10/19 06:03:18;;;;;;;1.67;0.83;;;11.60;99.90;;;;;;4938031;29;20346;-83
2022/10/19 06:05:44;;;;;;;3.47;1.20;;;11.70;99.90;;;;;;4942757;29;20303;-83
2022/10/19 06:08:09;;;;;;;0.97;0.63;;;11.70;99.90;;;;;;4937393;29;20200;-83
2022/10/19 06:10:35;;;;;;;3.10;1.00;;;11.70;99.90;;;;;;4937136;29;20201;-83
2022/10/19 06:13:00;;;;;;;2.40;1.30;;;11.70;99.90;;;;;;4942810;29;20963;-81
2022/10/19 06:15:26;;;;;;;3.73;0.93;;;11.70;99.90;;;;;;4933491;29;20356;-82
2022/10/19 06:17:51;;;;;;;1.53;1.07;;;11.60;99.90;;;;;;4935062;29;20205;-78
2022/10/19 06:20:17;;;;;;;1.17;0.87;;;11.70;99.90;;;;;;4943923;29;20211;-77
2022/10/19 06:22:42;;;;;;;2.80;1.27;;;11.70;99.90;;;;;;4941532;29;20659;-81
2022/10/19 06:25:08;;;;;;;2.67;1.07;;;11.70;99.90;;;;;;4935480;29;20220;-85
2022/10/19 06:27:33;;;;;;;4.37;1.30;;;11.70;99.90;;;;;;4946069;29;20306;-83
2022/10/19 06:29:59;;;;;;;2.37;1.17;;;11.80;99.90;;;;;;4936730;29;20243;-78
2022/10/19 06:32:24;;;;;;;5.53;1.20;;;11.80;99.90;;;;;;4937903;29;20642;-83
2022/10/19 06:34:50;;;;;;;4.17;1.23;;;11.70;99.90;;;;;;4933069;29;20205;-83
2022/10/19 06:37:15;;;;;;;5.97;1.07;;;11.70;99.90;;;;;;4945942;29;20219;-83
2022/10/19 06:39:41;;;;;;;6.43;1.60;;;11.80;99.90;;;;;;4930512;29;20299;-80
2022/10/19 06:42:08;;;;;;;6.37;1.00;;;11.80;99.90;;;;;;4945436;29;20188;-84
2022/10/19 06:44:33;;;;;;;5.13;1.20;;;11.70;99.90;;;;;;4934282;29;20599;-84
2022/10/19 06:46:59;;;;;;;3.60;1.67;;;11.70;99.90;;;;;;4940382;29;20254;-84
2022/10/19 06:49:24;;;;;;;1.23;1.10;;;11.80;99.90;;;;;;4938430;29;20632;-82
2022/10/19 06:51:50;;;;;;;3.90;1.70;;;11.80;99.90;;;;;;4936606;29;20447;-82
2022/10/19 06:54:15;;;;;;;4.40;1.60;;;11.80;99.90;;;;;;4939425;28;20213;-84
2022/10/19 06:56:41;;;;;;;4.17;1.20;;;11.80;99.90;;;;;;4935271;29;20202;-83
2022/10/19 06:59:06;;;;;;;3.57;1.43;;;11.80;99.90;;;;;;4926650;29;20228;-83
2022/10/19 07:01:32;;;;;;;5.27;1.40;;;11.90;99.90;;;;;;4941733;29;20745;-82
2022/10/19 07:03:57;;;;;;;6.30;1.87;;;11.90;99.90;;;;;;4935986;29;20305;-83
2022/10/19 07:06:25;;;;;;;4.00;1.57;;;11.90;99.90;;;;;;4930828;29;20687;-80
2022/10/19 07:08:51;;;;;;;4.63;1.30;;;11.90;99.90;;;;;;4944596;29;20198;-81
2022/10/19 07:11:19;;;;;;;3.37;1.73;;;11.90;99.90;;;;;;4940791;29;20234;-82
2022/10/19 07:13:44;;;;;;;1.83;1.07;;;12.00;99.90;;;;;;4934837;29;20227;-81
2022/10/19 07:16:12;;;;;;;5.27;1.10;;;12.00;99.90;;;;;;4944472;28;20239;-82
2022/10/19 07:18:39;;;;;;;1.93;1.50;;;12.00;99.90;;;;;;4937362;29;20208;-80
2022/10/19 07:21:08;;;;;;;4.30;1.30;;;12.00;99.90;;;;;;4941373;29;20212;-81
2022/10/19 07:23:35;;;;;;;2.97;1.17;;;12.10;99.90;;;;;;4937899;29;20260;-82
2022/10/19 07:26:16;;;;;;;4.87;1.47;;;12.10;99.90;;;;;;4945955;29;20213;-82
2022/10/19 07:28:44;;;;;;;1.40;0.80;;;12.20;99.90;;;;;;4947702;29;20204;-82
2022/10/19 07:31:12;;;;;;;4.27;1.27;;;12.20;99.90;;;;;;4936939;29;20294;-83
2022/10/19 07:33:38;;;;;;;5.27;1.20;;;12.30;99.90;;;;;;4931367;29;20245;-82
2022/10/19 07:36:06;;;;;;;1.87;1.00;;;12.40;99.90;;;;;;4936482;29;20205;-81
2022/10/19 07:38:33;;;;;;;2.33;1.03;;;12.40;99.90;;;;;;4939550;29;20609;-81
2022/10/19 07:41:00;;;;;;;5.43;1.07;;;12.40;99.90;;;;;;4927847;29;20213;-82
2022/10/19 07:43:26;;;;;;;3.20;1.90;;;12.40;99.90;;;;;;4942304;29;20249;-82
2022/10/19 07:45:57;;;;;;;3.67;1.53;;;12.40;99.90;;;;;;4938231;29;20239;-82
2022/10/19 07:48:23;;;;;;;9.80;1.60;;;12.50;99.90;;;;;;4938250;29;20195;-83
2022/10/19 07:50:48;;;;;;;8.43;1.50;;;12.60;99.90;;;;;;4939289;29;20284;-79
2022/10/19 07:53:14;;;;;;;2.87;1.00;;;12.60;99.90;;;;;;4937655;28;20244;-77
2022/10/19 07:55:39;;;;;;;3.60;1.10;;;12.60;99.90;;;;;;4934354;29;20244;-80
2022/10/19 07:58:05;;;;;;;4.23;1.40;;;12.70;99.90;;;;;;4942292;29;20200;-79
2022/10/19 08:00:30;;;;;;;4.93;1.40;;;12.70;99.90;;;;;;4933984;29;20282;-80
2022/10/19 08:02:56;;;;;;;2.90;1.17;;;12.80;99.90;;;;;;4933504;29;20568;-80
2022/10/19 08:05:21;;;;;;;4.63;1.03;;;12.80;99.90;;;;;;4937102;29;20284;-82
2022/10/19 08:07:46;;;;;;;2.47;1.17;;;12.80;99.90;;;;;;4946019;29;20547;-83
2022/10/19 08:10:12;;;;;;;2.60;1.13;;;12.80;99.90;;;;;;4940225;29;20563;-81
2022/10/19 08:12:38;;;;;;;2.80;1.03;;;12.80;99.90;;;;;;4950920;29;20200;-77
2022/10/19 08:15:05;;;;;;;3.27;1.33;;;12.70;99.90;;;;;;4936090;29;20288;-75
2022/10/19 08:17:34;;;;;;;5.07;1.10;;;12.80;99.90;;;;;;4936781;29;20329;-74
2022/10/19 08:19:59;;;;;;;3.13;0.90;;;12.70;99.90;;;;;;4942731;29;20217;-75
2022/10/19 08:22:24;;;;;;;7.10;1.17;;;12.80;99.90;;;;;;4936903;29;20560;-75
2022/10/19 08:24:50;;;;;;;5.43;1.30;;;12.90;99.90;;;;;;4928981;29;20309;-74
2022/10/19 08:27:15;;;;;;;3.83;0.87;;;12.80;99.90;;;;;;4945959;28;20194;-70
2022/10/19 08:29:41;;;;;;;4.10;1.10;;;12.80;99.90;;;;;;4940545;29;20207;-69
2022/10/19 08:32:06;;;;;;;5.50;1.17;;;12.80;99.90;;;;;;4940203;29;20182;-73
2022/10/19 08:34:32;;;;;;;6.77;1.30;;;12.90;99.90;;;;;;4941356;29;20624;-73
2022/10/19 08:36:57;;;;;;;5.83;1.17;;;12.90;99.90;;;;;;4952801;29;20257;-83
2022/10/19 08:39:23;;;;;;;2.47;0.90;;;12.90;99.90;;;;;;4962702;29;20170;-80
2022/10/19 08:42:02;;;;;;;1.10;1.00;;;13.00;99.90;;;;;;4949030;29;20199;-81
2022/10/19 08:44:45;;;;;;;4.17;0.80;;;13.00;99.90;;;;;;4951142;29;20198;-82
2022/10/19 08:47:26;;;;;;;2.13;1.13;;;13.10;99.90;;;;;;4949733;29;20261;-83
2022/10/19 08:49:53;;;;;;;3.50;1.50;;;13.10;99.90;;;;;;4953064;29;20200;-82
2022/10/19 08:52:23;;;;;;;7.77;3.27;;;13.20;99.90;;;;;;4950984;28;20203;-82
2022/10/19 08:54:50;;;;;;;1.67;0.90;;;13.20;99.90;;;;;;4949676;29;20337;-82
2022/10/19 08:57:27;;;;;;;4.43;0.90;;;13.30;99.90;;;;;;4943329;29;20201;-68
2022/10/19 09:00:05;;;;;;;4.70;1.50;;;13.30;99.90;;;;;;4933860;29;20348;-72
2022/10/19 09:02:53;;;;;;;5.40;1.20;;;13.50;99.90;;;;;;4931355;29;20199;-84
2022/10/19 09:05:44;;;;;;;2.13;1.27;;;13.70;99.90;;;;;;4929353;29;20602;-81
2022/10/19 09:08:10;;;;;;;7.40;1.50;;;13.80;99.90;;;;;;4944381;29;20443;-79
2022/10/19 09:10:39;;;;;;;3.37;0.90;;;13.70;99.90;;;;;;4936410;29;20235;-81
2022/10/19 09:13:18;;;;;;;2.97;1.17;;;13.70;99.90;;;;;;4945712;29;20194;-82
2022/10/19 09:15:49;;;;;;;1.47;1.13;;;13.70;99.90;;;;;;4955665;29;20210;-79
2022/10/19 09:18:27;;;;;;;2.27;0.80;;;13.80;99.90;;;;;;4951417;29;20209;-82
2022/10/19 09:21:10;;;;;;;5.17;0.90;;;13.80;99.90;;;;;;4945294;29;20212;-81
2022/10/19 09:23:49;;;;;;;4.53;1.40;;;13.80;99.90;;;;;;4947121;29;20202;-78
2022/10/19 09:26:17;;;;;;;6.20;2.20;;;13.50;99.90;;;;;;4919851;29;20216;-72
2022/10/19 09:29:01;;;;;;;4.70;1.83;;;13.40;99.90;;;;;;4951899;29;20205;-84
2022/10/19 09:31:31;;;;;;;3.17;1.20;;;13.50;99.90;;;;;;4933421;29;20205;-79
2022/10/19 09:34:01;;;;;;;4.77;1.73;;;13.70;99.90;;;;;;4935757;29;20198;-79
2022/10/19 09:36:39;;;;;;;2.30;1.00;;;13.80;99.90;;;;;;4930100;29;20674;-79
2022/10/19 09:39:04;;;;;;;3.10;1.20;;;13.90;99.90;;;;;;4930879;29;20484;-76
2022/10/19 09:41:30;;;;;;;1.87;1.10;;;14.00;99.90;;;;;;4929065;29;20358;-77
2022/10/19 09:43:56;;;;;;;0.77;0.77;;;14.10;99.90;;;;;;4934123;29;20203;-79
2022/10/19 09:46:35;;;;;;;3.50;1.20;;;14.20;99.90;;;;;;4936338;29;20776;-78
2022/10/19 09:49:03;;;;;;;1.37;1.17;;;14.30;99.90;;;;;;4940714;29;20190;-80
2022/10/19 09:51:49;;;;;;;8.03;1.63;;;14.40;99.90;;;;;;4934115;29;20208;-75
2022/10/19 09:54:36;;;;;;;2.73;1.27;;;14.50;99.90;;;;;;4934078;29;20229;-77
2022/10/19 09:57:03;;;;;;;2.00;1.43;;;14.60;99.90;;;;;;4927917;29;20194;-78
2022/10/19 09:59:34;;;;;;;4.20;0.70;;;14.40;99.90;;;;;;4930759;29;20200;-75
2022/10/19 10:02:17;;;;;;;3.23;1.10;;;14.30;99.90;;;;;;4935609;29;20214;-76
2022/10/19 10:05:03;;;;;;;2.33;1.00;;;14.30;99.90;;;;;;4928476;29;20983;-76
2022/10/19 10:07:35;;;;;;;3.27;1.10;;;14.30;99.90;;;;;;4935677;29;20191;-77
2022/10/19 10:10:02;;;;;;;2.00;1.03;;;14.30;99.90;;;;;;4932358;29;20190;-75
2022/10/19 10:12:28;;;;;;;2.90;1.23;;;14.30;99.90;;;;;;4929347;29;20658;-70
2022/10/19 10:14:55;;;;;;;2.20;0.87;;;14.50;99.90;;;;;;4928338;29;20202;-80
2022/10/19 10:17:26;;;;;;;2.47;0.60;;;14.70;99.90;;;;;;4930482;29;20449;-83
2022/10/19 10:19:57;;;;;;;2.50;0.97;;;14.90;99.90;;;;;;4932349;29;20622;-78
2022/10/19 10:22:32;;;;;;;4.10;1.50;;;15.20;99.90;;;;;;4939369;29;20823;-76
2022/10/19 10:24:58;;;;;;;1.43;1.20;;;15.30;99.90;;;;;;4936108;29;20729;-79
2022/10/19 10:27:53;;;;;;;1.47;0.90;;;15.40;99.90;;;;;;4935608;29;20237;-79
2022/10/19 10:30:18;;;;;;;2.27;1.00;;;15.30;99.90;;;;;;4940211;29;20257;-77
2022/10/19 10:32:50;;;;;;;1.23;0.70;;;15.20;99.90;;;;;;4938712;29;20190;-78
2022/10/19 10:35:27;;;;;;;2.97;0.90;;;15.30;99.90;;;;;;4934022;29;20245;-76
2022/10/19 10:38:06;;;;;;;1.47;1.07;;;15.50;99.90;;;;;;4938212;29;20880;-76
2022/10/19 10:40:32;;;;;;;2.40;0.67;;;15.50;99.90;;;;;;4935467;29;20264;-76
2022/10/19 10:43:07;;;;;;;2.40;1.10;;;15.60;99.90;;;;;;4918721;29;20670;-77
2022/10/19 10:45:40;;;;;;;3.93;0.87;;;15.70;99.90;;;;;;4936610;29;20244;-77
2022/10/19 10:48:31;;;;;;;2.87;0.70;;;15.70;99.90;;;;;;4944727;29;20202;-80
2022/10/19 10:50:59;;;;;;;2.00;1.57;;;15.50;99.90;;;;;;4929445;29;20210;-80
2022/10/19 10:53:44;;;;;;;1.77;1.27;;;15.30;99.90;;;;;;4927614;28;20574;-77
2022/10/19 10:56:25;;;;;;;1.23;0.60;;;15.00;99.30;;;;;;4947608;29;20197;-79
2022/10/19 10:59:04;;;;;;;0.73;0.47;;;14.60;99.70;;;;;;4938714;29;20203;-72
2022/10/19 11:01:35;;;;;;;1.00;0.50;;;14.60;99.90;;;;;;4946649;29;21101;-76
2022/10/19 11:04:10;;;;;;;1.80;0.60;;;14.80;99.70;;;;;;4948469;29;20597;-76
2022/10/19 11:06:42;;;;;;;1.07;0.47;;;15.20;99.50;;;;;;4945502;29;20662;-80
2022/10/19 11:09:25;;;;;;;2.67;0.57;;;15.70;98.70;;;;;;4948847;29;20186;-80
2022/10/19 11:11:54;;;;;;;1.70;0.70;;;16.10;97.90;;;;;;4945078;29;20699;-80
2022/10/19 11:14:44;;;;;;;1.23;0.50;;;16.50;99.40;;;;;;4938263;29;20179;-78
2022/10/19 11:17:22;;;;;;;1.43;0.77;;;16.70;97.40;;;;;;4940474;29;20278;-77
2022/10/19 11:19:51;;;;;;;2.90;1.00;;;16.50;97.40;;;;;;4944295;29;20348;-78
2022/10/19 11:22:54;;;;;;;5.87;1.00;;;16.40;97.20;;;;;;4939023;29;20194;-76
2022/10/19 11:25:48;;;;;;;1.57;0.50;;;16.50;98.40;;;;;;4918412;29;20237;-77
2022/10/19 11:28:34;;;;;;;1.30;0.80;;;16.70;98.30;;;;;;4934480;29;20289;-78
2022/10/19 11:31:26;;;;;;;1.67;0.70;;;17.10;98.70;;;;;;4939626;29;20566;-77
2022/10/19 11:34:03;;;;;;;0.57;0.53;;;17.50;97.90;;;;;;4930976;29;20684;-77
2022/10/19 11:36:44;;;;;;;3.70;0.93;;;17.70;96.40;;;;;;4939559;29;20187;-78
2022/10/19 11:39:48;;;;;;;2.43;0.80;;;17.90;96.10;;;;;;4938497;29;20201;-75
2022/10/19 11:42:49;;;;;;;3.33;0.70;;;17.90;95.90;;;;;;4910134;29;20215;-76
2022/10/19 11:45:37;;;;;;;8.10;0.90;;;17.70;95.50;;;;;;4954563;29;20262;-77
2022/10/19 11:48:47;;;;;;;2.07;0.97;;;17.60;94.70;;;;;;4964275;29;20211;-78
2022/10/19 11:51:50;;;;;;;1.33;0.90;;;17.40;95.50;;;;;;4957938;29;20210;-78
2022/10/19 11:54:45;;;;;;;3.50;0.90;;;17.30;95.10;;;;;;4960437;28;20213;-79
2022/10/19 11:57:24;;;;;;;2.17;0.97;;;16.70;94.00;;;;;;4934937;29;20207;-80
2022/10/19 12:00:11;;;;;;;1.10;0.50;;;16.40;94.80;;;;;;4936640;29;20205;-80
2022/10/19 12:03:04;;;;;;;0.60;0.60;;;16.50;96.20;;;;;;4941378;28;20222;-78
2022/10/19 12:05:58;;;;;;;0.43;0.43;;;17.00;97.20;;;;;;4944129;29;20202;-79
2022/10/19 12:08:44;;;;;;;0.90;0.60;;;17.90;95.50;;;;;;4932587;29;20198;-80
2022/10/19 12:11:39;;;;;;;1.83;0.50;;;18.50;92.00;;;;;;4946575;29;20221;-78
2022/10/19 12:14:10;;;;;;;3.07;1.63;;;19.00;92.40;;;;;;4918622;29;20198;-78
2022/10/19 12:16:40;;;;;;;2.87;0.97;;;19.50;92.50;;;;;;4936390;29;20213;-78
2022/10/19 12:19:13;;;;;;;20.87;6.87;;;19.60;93.10;;;;;;4942767;29;20719;-83
2022/10/19 12:21:42;;;;;;;1.90;1.03;;;19.40;93.10;;;;;;4938128;29;20213;-75
2022/10/19 12:24:14;;;;;;;6.90;1.17;;;18.90;90.90;;;;;;4939232;29;20205;-80
2022/10/19 12:26:40;;;;;;;3.60;1.10;;;18.20;92.40;;;;;;4945795;29;20219;-78
2022/10/19 12:29:13;;;;;;;2.17;0.80;;;17.90;93.80;;;;;;4946595;29;20609;-81
2022/10/19 12:31:40;;;;;;;2.20;1.30;;;17.50;93.40;;;;;;4929840;29;20520;-78
2022/10/19 12:34:28;;;;;;;2.50;0.80;;;17.30;94.10;;;;;;4931681;29;20227;-76
2022/10/19 12:37:16;;;;;;;1.83;1.70;;;17.70;95.60;;;;;;4931811;29;20212;-76
2022/10/19 12:39:55;;;;;;;1.50;0.77;;;18.60;94.50;;;;;;4929507;29;20200;-76
2022/10/19 12:42:50;;;;;;;2.37;0.90;;;19.50;91.10;;;;;;4928066;29;20200;-78
2022/10/19 12:45:44;;;;;;;1.23;0.60;;;20.50;90.80;;;;;;4933020;29;20202;-74
2022/10/19 12:48:10;;;;;;;1.90;0.40;;;21.30;88.30;;;;;;4917168;29;20195;-84
2022/10/19 12:50:47;;;;;;;3.33;0.80;;;22.10;82.70;;;;;;4928232;29;20557;-78
2022/10/19 12:53:35;;;;;;;1.40;0.50;;;22.40;78.70;;;;;;4945145;28;20233;-66
2022/10/19 12:56:06;;;;;;;1.33;0.70;;;21.90;78.10;;;;;;4944450;29;20693;-80
2022/10/19 12:58:41;;;;;;;1.23;0.40;;;21.50;79.20;;;;;;4946765;29;20190;-77
2022/10/19 13:01:08;;;;;;;1.97;0.63;;;20.50;79.80;;;;;;4927356;29;20201;-79
2022/10/19 13:03:37;;;;;;;2.23;0.93;;;19.60;81.80;;;;;;4933011;29;20271;-74
2022/10/19 13:06:23;;;;;;;1.00;0.40;;;19.10;84.10;;;;;;4935350;29;20316;-76
2022/10/19 13:08:52;;;;;;;1.97;0.43;;;18.40;84.90;;;;;;4929617;28;20240;-82